地図

経路データ

SID SEASON NUMBER BASIN SUBBASIN NAME ISO_TIME NATURE LAT LON WMO_WIND WMO_PRES WMO_AGENCY TRACK_TYPE DIST2LAND LANDFALL IFLAG USA_AGENCY USA_ATCF_ID USA_LAT USA_LON USA_RECORD USA_STATUS USA_WIND USA_PRES USA_SSHS USA_R34_NE USA_R34_SE USA_R34_SW USA_R34_NW USA_R50_NE USA_R50_SE USA_R50_SW USA_R50_NW USA_R64_NE USA_R64_SE USA_R64_SW USA_R64_NW USA_POCI USA_ROCI USA_RMW USA_EYE TOKYO_LAT TOKYO_LON TOKYO_GRADE TOKYO_WIND TOKYO_PRES TOKYO_R50_DIR TOKYO_R50_LONG TOKYO_R50_SHORT TOKYO_R30_DIR TOKYO_R30_LONG TOKYO_R30_SHORT TOKYO_LAND CMA_LAT CMA_LON CMA_CAT CMA_WIND CMA_PRES HKO_LAT HKO_LON HKO_CAT HKO_WIND HKO_PRES NEWDELHI_LAT NEWDELHI_LON NEWDELHI_GRADE NEWDELHI_WIND NEWDELHI_PRES NEWDELHI_CI NEWDELHI_DP NEWDELHI_POCI REUNION_LAT REUNION_LON REUNION_TYPE REUNION_WIND REUNION_PRES REUNION_TNUM REUNION_CI REUNION_RMW REUNION_R34_NE REUNION_R34_SE REUNION_R34_SW REUNION_R34_NW REUNION_R50_NE REUNION_R50_SE REUNION_R50_SW REUNION_R50_NW REUNION_R64_NE REUNION_R64_SE REUNION_R64_SW REUNION_R64_NW BOM_LAT BOM_LON BOM_TYPE BOM_WIND BOM_PRES BOM_TNUM BOM_CI BOM_RMW BOM_R34_NE BOM_R34_SE BOM_R34_SW BOM_R34_NW BOM_R50_NE BOM_R50_SE BOM_R50_SW BOM_R50_NW BOM_R64_NE BOM_R64_SE BOM_R64_SW BOM_R64_NW BOM_ROCI BOM_POCI BOM_EYE BOM_POS_METHOD BOM_PRES_METHOD NADI_LAT NADI_LON NADI_CAT NADI_WIND NADI_PRES WELLINGTON_LAT WELLINGTON_LON WELLINGTON_WIND WELLINGTON_PRES DS824_LAT DS824_LON DS824_STAGE DS824_WIND DS824_PRES TD9636_LAT TD9636_LON TD9636_STAGE TD9636_WIND TD9636_PRES TD9635_LAT TD9635_LON TD9635_WIND TD9635_PRES TD9635_ROCI NEUMANN_LAT NEUMANN_LON NEUMANN_CLASS NEUMANN_WIND NEUMANN_PRES MLC_LAT MLC_LON MLC_CLASS MLC_WIND MLC_PRES USA_GUST BOM_GUST BOM_GUST_PER REUNION_GUST REUNION_GUST_PER USA_SEAHGT USA_SEARAD_NE USA_SEARAD_SE USA_SEARAD_SW USA_SEARAD_NW STORM_SPEED STORM_DIR
1868001S18055 1868 2 SI MM NOT_NAMED 1868-01-01 06:00:00 NR -18.2000 55.1000 main 313 268 __________O___ -1 -18.2000 55.1000 7 10 164
1868001S18055 1868 2 SI MM NOT_NAMED 1868-01-01 09:00:00 NR -18.6753 55.2422 main 257 212 __________P___ -1 -18.6753 55.2422 7 10 164
1868001S18055 1868 2 SI MM NOT_NAMED 1868-01-01 12:00:00 NR -19.1305 55.3779 main 212 167 __________P___ -1 -19.1305 55.3779 7 9 164
1868001S18055 1868 2 SI MM NOT_NAMED 1868-01-01 15:00:00 NR -19.5454 55.4997 main 167 123 __________P___ -1 -19.5454 55.4997 7 8 165
1868001S18055 1868 2 SI MM NOT_NAMED 1868-01-01 18:00:00 NR -19.9000 55.6000 main 123 89 __________O___ -1 -19.9000 55.6000 7 7 165
1868001S18055 1868 2 SI MM NOT_NAMED 1868-01-01 21:00:00 NR -20.1865 55.6799 main 89 67 __________P___ -1 -20.1865 55.6799 7 6 163
1868001S18055 1868 2 SI MM NOT_NAMED 1868-01-02 00:00:00 NR -20.4463 55.7760 main 67 39 __________P___ -1 -20.4463 55.7760 7 6 156
1868001S18055 1868 2 SI MM NOT_NAMED 1868-01-02 03:00:00 NR -20.7330 55.9339 main 39 30 __________P___ -1 -20.7330 55.9339 7 8 149
1868001S18055 1868 2 SI MM NOT_NAMED 1868-01-02 06:00:00 NR -21.1000 56.2000 main 41 41 __________O___ -1 -21.1000 56.2000 7 11 145
1868001S18055 1868 2 SI MM NOT_NAMED 1868-01-02 09:00:00 NR -21.6465 56.6128 main 89 89 __________P___ -1 -21.6465 56.6128 7 15 143
1868001S18055 1868 2 SI MM NOT_NAMED 1868-01-02 12:00:00 NR -22.2703 57.1400 main 174 174 __________P___ -1 -22.2703 57.1400 7 16 140
1868001S18055 1868 2 SI MM NOT_NAMED 1868-01-02 15:00:00 NR -22.9088 57.7475 main 265 265 __________P___ -1 -22.9088 57.7475 7 17 137
1868001S18055 1868 2 SI MM NOT_NAMED 1868-01-02 18:00:00 NR -23.5000 58.4000 main 343 343 __________O___ -1 -23.5000 58.4000 7 16 132
1868001S18055 1868 2 SI MM NOT_NAMED 1868-01-02 21:00:00 NR -23.9985 59.0633 main 416 416 __________P___ -1 -23.9985 59.0633 7 16 127
1868001S18055 1868 2 SI MM NOT_NAMED 1868-01-03 00:00:00 NR -24.4357 59.7569 main 486 486 __________P___ -1 -24.4357 59.7569 7 15 123
1868001S18055 1868 2 SI MM NOT_NAMED 1868-01-03 03:00:00 NR -24.8049 60.4473 main 554 554 __________P___ -1 -24.8049 60.4473 7 14 119
1868001S18055 1868 2 SI MM NOT_NAMED 1868-01-03 06:00:00 NR -25.1000 61.1000 main 621 621 __________O___ -1 -25.1000 61.1000 7 12 115
1868001S18055 1868 2 SI MM NOT_NAMED 1868-01-03 09:00:00 NR -25.3287 61.6783 main 674 674 __________P___ -1 -25.3287 61.6783 7 11 111
1868001S18055 1868 2 SI MM NOT_NAMED 1868-01-03 12:00:00 NR -25.4884 62.2125 main 723 723 __________P___ -1 -25.4884 62.2125 7 10 106
1868001S18055 1868 2 SI MM NOT_NAMED 1868-01-03 15:00:00 NR -25.6040 62.7153 main 765 765 __________P___ -1 -25.6040 62.7153 7 9 103
1868001S18055 1868 2 SI MM NOT_NAMED 1868-01-03 18:00:00 NR -25.7000 63.2000 main 808 808 __________O___ -1 -25.7000 63.2000 7 9 103
1868001S18055 1868 2 SI MM NOT_NAMED 1868-01-03 21:00:00 NR -25.7966 63.6783 main 852 852 __________P___ -1 -25.7966 63.6783 7 9 103
1868001S18055 1868 2 SI MM NOT_NAMED 1868-01-04 00:00:00 NR -25.8966 64.1535 main 897 897 __________P___ -1 -25.8966 64.1535 7 9 103
1868001S18055 1868 2 SI MM NOT_NAMED 1868-01-04 03:00:00 NR -25.9982 64.6270 main 934 934 __________P___ -1 -25.9982 64.6270 7 9 103
1868001S18055 1868 2 SI MM NOT_NAMED 1868-01-04 06:00:00 NR -26.1000 65.1000 main 980 __________O___ -1 -26.1000 65.1000 7 9 103

IBTrACS Databaseについて

本データベースは、米国NOAAが公開する1842年以降の世界の熱帯低気圧のベストトラックデータアーカイブInternational Best Track Archive for Climate Stewardship (IBTrACS)を、ウェブで閲覧しやすい形式に変換したものです。

最終更新日:2021-12-06